»·PEaware :: N102CF KSAN-KEMT

N102CF :: KSAN-KEMT

FLIGHT INFORMATION

Flight Status: Arrived
Operator: Privately registered:
United States
More flights under this callsign
Pilot: Cole F. (14495)
Aircraft: SOCATA TBM-900
(TBM9)
More flights by this aircraft type
Origin: KSAN San Diego Intl-Lindbergh
United States
Destination: KEMT El Monte
United States
More flights between these airports :: More routes between these airports
Route: +PEBLE6 MELDY MZB293R POM164R POM
File this flight plan on PilotEdge
Remarks: SANP24
Altitude:
(Current/Filed)
8,000ft
Speed:
(Current/Filed)
265kts
Departed: 08-Feb-20 03:55 PM
Arrived: 08-Feb-20 04:28 PM
Distance/Time
Traveled:
91nm/0:33
Distance/Time
To Go:
Arrived

Flight Plot

Page will automatically refresh every two minutes.

Flight plan parsing failed; only flown route is shown


Map Options




Map Legend


Flown Route
Filed Route
Departure Airport
Arrival Airport
Navaid (VOR, NDB)
Fix

Horizontal Profiles

Position Reports

Time Latitude Longitude Heading Altitude Ground
Speed
08-Feb-20 15:24 32.732230 -117.177219 194 18ft 0kts
08-Feb-20 15:25 32.732230 -117.177219 194 18ft 0kts
08-Feb-20 15:26 32.732230 -117.177219 194 18ft 0kts
08-Feb-20 15:27 32.732230 -117.177219 194 18ft 0kts
08-Feb-20 15:28 32.732230 -117.177219 194 18ft 0kts
08-Feb-20 15:29 32.732230 -117.177219 194 18ft 0kts
08-Feb-20 15:30 32.732230 -117.177219 194 18ft 0kts
08-Feb-20 15:31 32.732230 -117.177219 194 18ft 0kts
08-Feb-20 15:32 32.732230 -117.177219 194 18ft 0kts
08-Feb-20 15:33 32.732230 -117.177219 194 18ft 0kts
08-Feb-20 15:34 32.732230 -117.177219 194 18ft 0kts
08-Feb-20 15:35 32.732230 -117.177219 194 18ft 0kts
08-Feb-20 15:36 32.732230 -117.177219 194 18ft 0kts
08-Feb-20 15:37 32.732230 -117.177219 194 18ft 0kts
08-Feb-20 15:38 32.732230 -117.177219 194 18ft 0kts
08-Feb-20 15:39 32.732230 -117.177219 194 18ft 0kts
08-Feb-20 15:40 32.732230 -117.177219 194 18ft 0kts
08-Feb-20 15:41 32.732230 -117.177219 194 18ft 0kts
08-Feb-20 15:42 32.732230 -117.177219 194 18ft 0kts
08-Feb-20 15:43 32.732230 -117.177219 194 18ft 0kts
08-Feb-20 15:44 32.732230 -117.177219 194 18ft 0kts
08-Feb-20 15:45 32.732230 -117.177219 193 18ft 0kts
08-Feb-20 15:46 32.732230 -117.177219 193 18ft 0kts
08-Feb-20 15:47 32.732230 -117.177219 193 18ft 0kts
08-Feb-20 15:48 32.732230 -117.177219 193 18ft 0kts
08-Feb-20 15:49 32.732230 -117.177219 193 18ft 0kts
08-Feb-20 15:50 32.732230 -117.177219 193 18ft 0kts
08-Feb-20 15:51 32.731428 -117.176560 124 18ft 7kts
08-Feb-20 15:52 32.730978 -117.175536 141 18ft 0kts
08-Feb-20 15:53 32.730978 -117.175536 141 18ft 0kts
08-Feb-20 15:55 32.730577 -117.177320 285 18ft 54kts
08-Feb-20 15:56 32.743855 -117.209007 304 1652ft 126kts
08-Feb-20 15:57 32.764907 -117.244568 304 3953ft 135kts
08-Feb-20 15:58 32.787277 -117.281103 304 6277ft 137kts
08-Feb-20 15:59 32.811505 -117.319676 304 8026ft 168kts
08-Feb-20 16:00 32.842094 -117.369185 304 8000ft 215kts
08-Feb-20 16:01 32.878573 -117.428643 304 8001ft 230kts
08-Feb-20 16:02 32.933202 -117.472372 329 7998ft 238kts
08-Feb-20 16:03 32.978526 -117.526639 306 7997ft 230kts
08-Feb-20 16:04 33.017900 -117.587148 306 7993ft 229kts
08-Feb-20 16:05 33.057171 -117.647292 306 7980ft 229kts
08-Feb-20 16:06 33.096568 -117.707565 306 7982ft 229kts
08-Feb-20 16:07 33.134438 -117.764789 314 7971ft 230kts
08-Feb-20 16:08 33.198433 -117.772171 355 7982ft 235kts
08-Feb-20 16:09 33.266155 -117.774518 356 8021ft 251kts
08-Feb-20 16:10 33.337199 -117.776096 356 8017ft 256kts
08-Feb-20 16:10 33.396874 -117.777106 356 8014ft 257kts
08-Feb-20 16:12 33.480469 -117.778354 356 8011ft 257kts
08-Feb-20 16:13 33.551046 -117.779392 356 7191ft 246kts
08-Feb-20 16:13 33.607067 -117.780188 356 6343ft 237kts
08-Feb-20 16:15 33.685455 -117.781329 357 5187ft 243kts
08-Feb-20 16:16 33.750812 -117.782267 357 4999ft 224kts
08-Feb-20 16:16 33.802401 -117.783213 357 5006ft 213kts
08-Feb-20 16:17 33.859070 -117.784405 357 5005ft 202kts
08-Feb-20 16:19 33.929567 -117.785865 357 5003ft 223kts
08-Feb-20 16:19 33.974753 -117.804795 311 5000ft 204kts
08-Feb-20 16:20 34.012115 -117.847163 321 4690ft 177kts
08-Feb-20 16:21 34.054950 -117.882470 326 4334ft 180kts
08-Feb-20 16:22 34.094199 -117.913756 319 3691ft 155kts
08-Feb-20 16:23 34.118288 -117.945752 303 2746ft 101kts
08-Feb-20 16:24 34.125905 -117.981030 271 1978ft 109kts
08-Feb-20 16:25 34.119950 -118.014482 234 1345ft 108kts
08-Feb-20 16:26 34.099330 -118.027207 208 649ft 75kts
08-Feb-20 16:27 34.085990 -118.034728 190 297ft 4kts
08-Feb-20 16:28 34.085398 -118.034634 97 297ft 0kts
08-Feb-20 16:29 34.085393 -118.034187 86 297ft 8kts

Navigation Log

Ident Type
Flight plan parsing failed, navigation log unavailable